sensor_id;sensor_type;location;lat;lon;timestamp;pressure;altitude;pressure_sealevel;temperature
30001;BMP280;16845;48.670;9.000;2023-10-19T00:00:57;93972.25;;;13.27
30001;BMP280;16845;48.670;9.000;2023-10-19T00:03:24;93977.69;;;13.34
30001;BMP280;16845;48.670;9.000;2023-10-19T00:05:51;93975.75;;;13.51
30001;BMP280;16845;48.670;9.000;2023-10-19T00:08:19;93982.69;;;13.60
30001;BMP280;16845;48.670;9.000;2023-10-19T00:10:48;93975.81;;;13.37
30001;BMP280;16845;48.670;9.000;2023-10-19T00:13:14;93985.34;;;13.59
30001;BMP280;16845;48.670;9.000;2023-10-19T00:15:42;93985.47;;;13.70
30001;BMP280;16845;48.670;9.000;2023-10-19T00:18:09;93974.97;;;13.63
30001;BMP280;16845;48.670;9.000;2023-10-19T00:20:35;93979.19;;;13.63
30001;BMP280;16845;48.670;9.000;2023-10-19T00:23:03;93977.03;;;13.57
30001;BMP280;16845;48.670;9.000;2023-10-19T00:25:31;93976.34;;;13.42
30001;BMP280;16845;48.670;9.000;2023-10-19T00:27:58;93970.03;;;13.74
30001;BMP280;16845;48.670;9.000;2023-10-19T00:30:24;93959.25;;;13.85
30001;BMP280;16845;48.670;9.000;2023-10-19T00:32:51;93965.50;;;13.92
30001;BMP280;16845;48.670;9.000;2023-10-19T00:35:17;93964.91;;;13.88
30001;BMP280;16845;48.670;9.000;2023-10-19T00:37:44;93950.16;;;13.70
30001;BMP280;16845;48.670;9.000;2023-10-19T00:40:11;93960.03;;;13.73
30001;BMP280;16845;48.670;9.000;2023-10-19T00:42:39;93949.06;;;13.86
30001;BMP280;16845;48.670;9.000;2023-10-19T00:45:06;93948.44;;;13.95
30001;BMP280;16845;48.670;9.000;2023-10-19T00:47:33;93944.72;;;13.88
30001;BMP280;16845;48.670;9.000;2023-10-19T00:49:59;93937.03;;;14.02
30001;BMP280;16845;48.670;9.000;2023-10-19T00:52:26;93929.06;;;13.83
30001;BMP280;16845;48.670;9.000;2023-10-19T00:54:52;93940.38;;;13.78
30001;BMP280;16845;48.670;9.000;2023-10-19T00:57:19;93930.78;;;13.95
30001;BMP280;16845;48.670;9.000;2023-10-19T00:59:47;93931.78;;;14.05
30001;BMP280;16845;48.670;9.000;2023-10-19T01:02:14;93935.84;;;14.20
30001;BMP280;16845;48.670;9.000;2023-10-19T01:04:42;93928.78;;;14.00
30001;BMP280;16845;48.670;9.000;2023-10-19T01:07:08;93919.19;;;13.93
30001;BMP280;16845;48.670;9.000;2023-10-19T01:09:35;93915.72;;;14.06
30001;BMP280;16845;48.670;9.000;2023-10-19T01:12:02;93908.19;;;14.18
30001;BMP280;16845;48.670;9.000;2023-10-19T01:14:28;93913.00;;;14.34
30001;BMP280;16845;48.670;9.000;2023-10-19T01:16:57;93901.72;;;14.27
30001;BMP280;16845;48.670;9.000;2023-10-19T01:19:23;93897.56;;;14.26
30001;BMP280;16845;48.670;9.000;2023-10-19T01:21:50;93897.03;;;14.33
30001;BMP280;16845;48.670;9.000;2023-10-19T01:24:18;93890.53;;;14.54
30001;BMP280;16845;48.670;9.000;2023-10-19T01:26:45;93886.81;;;14.47
30001;BMP280;16845;48.670;9.000;2023-10-19T01:29:11;93887.53;;;14.49
30001;BMP280;16845;48.670;9.000;2023-10-19T01:31:38;93882.97;;;14.54
30001;BMP280;16845;48.670;9.000;2023-10-19T01:34:05;93885.91;;;14.48
30001;BMP280;16845;48.670;9.000;2023-10-19T01:36:32;93886.78;;;14.60
30001;BMP280;16845;48.670;9.000;2023-10-19T01:38:58;93885.97;;;14.59
30001;BMP280;16845;48.670;9.000;2023-10-19T01:41:27;93877.81;;;14.56
30001;BMP280;16845;48.670;9.000;2023-10-19T01:43:54;93870.34;;;14.54
30001;BMP280;16845;48.670;9.000;2023-10-19T01:46:22;93872.06;;;14.54
30001;BMP280;16845;48.670;9.000;2023-10-19T01:48:50;93864.00;;;14.72
30001;BMP280;16845;48.670;9.000;2023-10-19T01:51:16;93860.19;;;14.67
30001;BMP280;16845;48.670;9.000;2023-10-19T01:53:43;93866.94;;;14.66
30001;BMP280;16845;48.670;9.000;2023-10-19T01:56:10;93861.00;;;14.67
30001;BMP280;16845;48.670;9.000;2023-10-19T01:58:39;93856.94;;;14.54
30001;BMP280;16845;48.670;9.000;2023-10-19T02:01:06;93854.88;;;14.59
30001;BMP280;16845;48.670;9.000;2023-10-19T02:03:33;93859.31;;;14.55
30001;BMP280;16845;48.670;9.000;2023-10-19T02:05:59;93871.94;;;14.55
30001;BMP280;16845;48.670;9.000;2023-10-19T02:08:27;93860.13;;;14.56
30001;BMP280;16845;48.670;9.000;2023-10-19T02:10:54;93852.66;;;14.31
30001;BMP280;16845;48.670;9.000;2023-10-19T02:13:20;93862.63;;;14.32
30001;BMP280;16845;48.670;9.000;2023-10-19T02:15:48;93860.94;;;14.33
30001;BMP280;16845;48.670;9.000;2023-10-19T02:18:15;93862.75;;;14.31
30001;BMP280;16845;48.670;9.000;2023-10-19T02:20:42;93857.19;;;14.26
30001;BMP280;16845;48.670;9.000;2023-10-19T02:23:08;93849.72;;;14.24
30001;BMP280;16845;48.670;9.000;2023-10-19T02:25:35;93853.97;;;14.11
30001;BMP280;16845;48.670;9.000;2023-10-19T02:28:01;93846.72;;;14.19
30001;BMP280;16845;48.670;9.000;2023-10-19T02:30:28;93839.50;;;13.78
30001;BMP280;16845;48.670;9.000;2023-10-19T02:32:56;93840.38;;;14.02
30001;BMP280;16845;48.670;9.000;2023-10-19T02:35:23;93838.19;;;13.85
30001;BMP280;16845;48.670;9.000;2023-10-19T02:37:49;93842.84;;;13.78
30001;BMP280;16845;48.670;9.000;2023-10-19T02:40:16;93840.25;;;13.67
30001;BMP280;16845;48.670;9.000;2023-10-19T02:42:42;93842.66;;;13.56
30001;BMP280;16845;48.670;9.000;2023-10-19T02:45:10;93834.81;;;13.61
30001;BMP280;16845;48.670;9.000;2023-10-19T02:47:36;93842.75;;;13.67
30001;BMP280;16845;48.670;9.000;2023-10-19T02:50:05;93836.50;;;13.60
30001;BMP280;16845;48.670;9.000;2023-10-19T02:52:32;93832.88;;;13.64
30001;BMP280;16845;48.670;9.000;2023-10-19T02:54:59;93825.50;;;13.61
30001;BMP280;16845;48.670;9.000;2023-10-19T02:57:25;93827.94;;;13.25
30001;BMP280;16845;48.670;9.000;2023-10-19T02:59:52;93826.84;;;13.54
30001;BMP280;16845;48.670;9.000;2023-10-19T03:02:18;93820.47;;;13.61
30001;BMP280;16845;48.670;9.000;2023-10-19T03:04:45;93824.41;;;13.65
30001;BMP280;16845;48.670;9.000;2023-10-19T03:07:13;93820.19;;;13.41
30001;BMP280;16845;48.670;9.000;2023-10-19T03:09:40;93812.41;;;13.56
30001;BMP280;16845;48.670;9.000;2023-10-19T03:12:06;93807.16;;;13.59
30001;BMP280;16845;48.670;9.000;2023-10-19T03:14:33;93807.88;;;13.61
30001;BMP280;16845;48.670;9.000;2023-10-19T03:17:00;93801.13;;;13.24
30001;BMP280;16845;48.670;9.000;2023-10-19T03:19:27;93794.78;;;13.56
30001;BMP280;16845;48.670;9.000;2023-10-19T03:21:55;93802.91;;;13.72
30001;BMP280;16845;48.670;9.000;2023-10-19T03:24:23;93793.25;;;13.66
30001;BMP280;16845;48.670;9.000;2023-10-19T03:26:50;93793.22;;;13.79
30001;BMP280;16845;48.670;9.000;2023-10-19T03:29:17;93800.38;;;13.85
30001;BMP280;16845;48.670;9.000;2023-10-19T03:31:43;93792.97;;;13.94
30001;BMP280;16845;48.670;9.000;2023-10-19T03:34:10;93799.44;;;13.98
30001;BMP280;16845;48.670;9.000;2023-10-19T03:36:37;93795.94;;;13.88
30001;BMP280;16845;48.670;9.000;2023-10-19T03:39:03;93788.59;;;13.73
30001;BMP280;16845;48.670;9.000;2023-10-19T03:41:31;93789.09;;;13.78
30001;BMP280;16845;48.670;9.000;2023-10-19T03:43:58;93789.00;;;13.79
30001;BMP280;16845;48.670;9.000;2023-10-19T03:46:24;93786.94;;;13.84
30001;BMP280;16845;48.670;9.000;2023-10-19T03:48:51;93786.03;;;13.85
30001;BMP280;16845;48.670;9.000;2023-10-19T03:51:17;93783.09;;;13.91
30001;BMP280;16845;48.670;9.000;2023-10-19T03:53:44;93781.06;;;13.96
30001;BMP280;16845;48.670;9.000;2023-10-19T03:56:10;93777.63;;;13.61
30001;BMP280;16845;48.670;9.000;2023-10-19T03:58:38;93778.47;;;13.85
30001;BMP280;16845;48.670;9.000;2023-10-19T04:01:05;93765.03;;;13.97
30001;BMP280;16845;48.670;9.000;2023-10-19T04:03:31;93762.06;;;14.15
30001;BMP280;16845;48.670;9.000;2023-10-19T04:05:58;93767.34;;;14.00
30001;BMP280;16845;48.670;9.000;2023-10-19T04:08:25;93756.19;;;14.15
30001;BMP280;16845;48.670;9.000;2023-10-19T04:10:51;93756.81;;;14.18
30001;BMP280;16845;48.670;9.000;2023-10-19T04:13:18;93747.38;;;14.33
30001;BMP280;16845;48.670;9.000;2023-10-19T04:15:46;93747.41;;;14.44
30001;BMP280;16845;48.670;9.000;2023-10-19T04:18:12;93746.38;;;14.46
30001;BMP280;16845;48.670;9.000;2023-10-19T04:20:39;93750.41;;;14.49
30001;BMP280;16845;48.670;9.000;2023-10-19T04:23:06;93753.97;;;14.57
30001;BMP280;16845;48.670;9.000;2023-10-19T04:25:32;93742.97;;;14.58
30001;BMP280;16845;48.670;9.000;2023-10-19T04:27:59;93743.06;;;14.46
30001;BMP280;16845;48.670;9.000;2023-10-19T04:30:25;93744.81;;;14.56
30001;BMP280;16845;48.670;9.000;2023-10-19T04:32:53;93741.69;;;14.53
30001;BMP280;16845;48.670;9.000;2023-10-19T04:35:20;93751.28;;;14.37
30001;BMP280;16845;48.670;9.000;2023-10-19T04:37:46;93733.06;;;14.44
30001;BMP280;16845;48.670;9.000;2023-10-19T04:40:13;93724.75;;;14.31
30001;BMP280;16845;48.670;9.000;2023-10-19T04:42:40;93729.25;;;14.39
30001;BMP280;16845;48.670;9.000;2023-10-19T04:45:07;93726.78;;;14.50
30001;BMP280;16845;48.670;9.000;2023-10-19T04:47:33;93739.66;;;14.34
30001;BMP280;16845;48.670;9.000;2023-10-19T04:50:02;93729.97;;;14.18
30001;BMP280;16845;48.670;9.000;2023-10-19T04:52:28;93729.06;;;14.42
30001;BMP280;16845;48.670;9.000;2023-10-19T04:54:55;93727.91;;;14.46
30001;BMP280;16845;48.670;9.000;2023-10-19T04:57:21;93726.34;;;14.56
30001;BMP280;16845;48.670;9.000;2023-10-19T04:59:48;93733.00;;;14.57
30001;BMP280;16845;48.670;9.000;2023-10-19T05:02:14;93722.44;;;14.63
30001;BMP280;16845;48.670;9.000;2023-10-19T05:04:42;93720.63;;;14.65
30001;BMP280;16845;48.670;9.000;2023-10-19T05:07:10;93722.66;;;14.60
30001;BMP280;16845;48.670;9.000;2023-10-19T05:09:36;93715.91;;;14.60
30001;BMP280;16845;48.670;9.000;2023-10-19T05:12:03;93723.59;;;14.59
30001;BMP280;16845;48.670;9.000;2023-10-19T05:14:30;93713.03;;;14.54
30001;BMP280;16845;48.670;9.000;2023-10-19T05:16:57;93713.78;;;14.43
30001;BMP280;16845;48.670;9.000;2023-10-19T05:19:24;93715.56;;;14.54
30001;BMP280;16845;48.670;9.000;2023-10-19T05:21:50;93714.75;;;14.53
30001;BMP280;16845;48.670;9.000;2023-10-19T05:24:18;93712.63;;;14.47
30001;BMP280;16845;48.670;9.000;2023-10-19T05:26:45;93712.09;;;14.44
30001;BMP280;16845;48.670;9.000;2023-10-19T05:29:11;93715.31;;;14.57
30001;BMP280;16845;48.670;9.000;2023-10-19T05:31:37;93715.34;;;14.68
30001;BMP280;16845;48.670;9.000;2023-10-19T05:34:04;93716.47;;;14.64
30001;BMP280;16845;48.670;9.000;2023-10-19T05:36:31;93711.22;;;14.67
30001;BMP280;16845;48.670;9.000;2023-10-19T05:38:57;93704.09;;;14.72
30001;BMP280;16845;48.670;9.000;2023-10-19T05:41:25;93703.66;;;14.67
30001;BMP280;16845;48.670;9.000;2023-10-19T05:43:52;93710.53;;;14.65
30001;BMP280;16845;48.670;9.000;2023-10-19T05:46:18;93705.69;;;14.62
30001;BMP280;16845;48.670;9.000;2023-10-19T05:48:45;93709.94;;;14.61
30001;BMP280;16845;48.670;9.000;2023-10-19T05:51:11;93703.88;;;14.75
30001;BMP280;16845;48.670;9.000;2023-10-19T05:53:38;93700.91;;;14.70
30001;BMP280;16845;48.670;9.000;2023-10-19T05:56:05;93708.81;;;14.76
30001;BMP280;16845;48.670;9.000;2023-10-19T05:58:32;93714.56;;;14.78
30001;BMP280;16845;48.670;9.000;2023-10-19T06:00:59;93708.00;;;14.76
30001;BMP280;16845;48.670;9.000;2023-10-19T06:03:26;93716.47;;;14.64
30001;BMP280;16845;48.670;9.000;2023-10-19T06:05:52;93717.75;;;14.69
30001;BMP280;16845;48.670;9.000;2023-10-19T06:08:19;93718.56;;;14.70
30001;BMP280;16845;48.670;9.000;2023-10-19T06:10:50;93726.97;;;14.81
30001;BMP280;16845;48.670;9.000;2023-10-19T06:13:17;93720.66;;;14.87
30001;BMP280;16845;48.670;9.000;2023-10-19T06:15:45;93716.72;;;14.72
30001;BMP280;16845;48.670;9.000;2023-10-19T06:18:11;93720.91;;;14.84
30001;BMP280;16845;48.670;9.000;2023-10-19T06:20:42;93719.53;;;14.80
30001;BMP280;16845;48.670;9.000;2023-10-19T06:23:09;93718.84;;;14.78
30001;BMP280;16845;48.670;9.000;2023-10-19T06:25:36;93719.53;;;14.80
30001;BMP280;16845;48.670;9.000;2023-10-19T06:28:02;93722.16;;;14.78
30001;BMP280;16845;48.670;9.000;2023-10-19T06:30:29;93717.94;;;14.90
30001;BMP280;16845;48.670;9.000;2023-10-19T06:32:59;93725.38;;;14.91
30001;BMP280;16845;48.670;9.000;2023-10-19T06:35:27;93724.59;;;15.02
30001;BMP280;16845;48.670;9.000;2023-10-19T06:37:54;93723.56;;;14.93
30001;BMP280;16845;48.670;9.000;2023-10-19T06:40:21;93725.63;;;14.99
30001;BMP280;16845;48.670;9.000;2023-10-19T06:42:48;93722.28;;;14.88
30001;BMP280;16845;48.670;9.000;2023-10-19T06:45:16;93723.44;;;14.95
30001;BMP280;16845;48.670;9.000;2023-10-19T06:47:44;93711.50;;;14.97
30001;BMP280;16845;48.670;9.000;2023-10-19T06:50:13;93719.56;;;15.02
30001;BMP280;16845;48.670;9.000;2023-10-19T06:52:39;93712.66;;;14.93
30001;BMP280;16845;48.670;9.000;2023-10-19T06:55:07;93715.41;;;14.90
30001;BMP280;16845;48.670;9.000;2023-10-19T06:57:34;93713.44;;;14.82
30001;BMP280;16845;48.670;9.000;2023-10-19T07:00:01;93704.25;;;15.03
30001;BMP280;16845;48.670;9.000;2023-10-19T07:02:27;93710.34;;;14.90
30001;BMP280;16845;48.670;9.000;2023-10-19T07:04:54;93722.09;;;15.02
30001;BMP280;16845;48.670;9.000;2023-10-19T07:07:22;93713.03;;;15.21
30001;BMP280;16845;48.670;9.000;2023-10-19T07:09:48;93713.13;;;15.20
30001;BMP280;16845;48.670;9.000;2023-10-19T07:12:16;93715.78;;;15.07
30001;BMP280;16845;48.670;9.000;2023-10-19T07:14:45;93711.31;;;15.22
30001;BMP280;16845;48.670;9.000;2023-10-19T07:17:12;93712.56;;;15.16
30001;BMP280;16845;48.670;9.000;2023-10-19T07:19:42;93710.97;;;15.37
30001;BMP280;16845;48.670;9.000;2023-10-19T07:22:08;93710.44;;;15.34
30001;BMP280;16845;48.670;9.000;2023-10-19T07:24:36;93708.09;;;15.42
30001;BMP280;16845;48.670;9.000;2023-10-19T07:27:03;93709.03;;;15.30
30001;BMP280;16845;48.670;9.000;2023-10-19T07:29:29;93709.22;;;15.27
30001;BMP280;16845;48.670;9.000;2023-10-19T07:31:56;93709.38;;;15.36
30001;BMP280;16845;48.670;9.000;2023-10-19T07:34:22;93709.91;;;15.29
30001;BMP280;16845;48.670;9.000;2023-10-19T07:36:49;93690.63;;;15.72
30001;BMP280;16845;48.670;9.000;2023-10-19T07:39:15;93701.50;;;15.72
30001;BMP280;16845;48.670;9.000;2023-10-19T07:41:43;93705.16;;;16.01
30001;BMP280;16845;48.670;9.000;2023-10-19T07:44:10;93695.59;;;16.05
30001;BMP280;16845;48.670;9.000;2023-10-19T07:46:36;93701.34;;;16.07
30001;BMP280;16845;48.670;9.000;2023-10-19T07:49:03;93699.44;;;16.20
30001;BMP280;16845;48.670;9.000;2023-10-19T07:51:29;93699.06;;;16.04
30001;BMP280;16845;48.670;9.000;2023-10-19T07:53:56;93689.69;;;16.15
30001;BMP280;16845;48.670;9.000;2023-10-19T07:56:22;93686.91;;;15.76
30001;BMP280;16845;48.670;9.000;2023-10-19T07:58:51;93686.91;;;15.87
30001;BMP280;16845;48.670;9.000;2023-10-19T08:03:20;93674.50;;;15.84
30001;BMP280;16845;48.670;9.000;2023-10-19T08:05:46;93682.59;;;16.09
30001;BMP280;16845;48.670;9.000;2023-10-19T08:08:13;93673.22;;;16.21
30001;BMP280;16845;48.670;9.000;2023-10-19T08:10:39;93687.44;;;16.33
30001;BMP280;16845;48.670;9.000;2023-10-19T08:13:06;93689.72;;;16.47
30001;BMP280;16845;48.670;9.000;2023-10-19T08:15:33;93690.09;;;16.63
30001;BMP280;16845;48.670;9.000;2023-10-19T08:17:59;93693.00;;;16.78
30001;BMP280;16845;48.670;9.000;2023-10-19T08:20:27;93691.28;;;16.59
30001;BMP280;16845;48.670;9.000;2023-10-19T08:22:54;93687.38;;;16.95
30001;BMP280;16845;48.670;9.000;2023-10-19T08:25:21;93680.84;;;17.02
30001;BMP280;16845;48.670;9.000;2023-10-19T08:27:48;93687.44;;;17.14
30001;BMP280;16845;48.670;9.000;2023-10-19T08:30:17;93683.59;;;17.20
30001;BMP280;16845;48.670;9.000;2023-10-19T08:32:47;93684.69;;;17.17
30001;BMP280;16845;48.670;9.000;2023-10-19T08:35:14;93678.88;;;17.26
30001;BMP280;16845;48.670;9.000;2023-10-19T08:37:42;93680.09;;;17.32
30001;BMP280;16845;48.670;9.000;2023-10-19T08:40:10;93663.59;;;17.37
30001;BMP280;16845;48.670;9.000;2023-10-19T08:42:37;93669.97;;;17.11
30001;BMP280;16845;48.670;9.000;2023-10-19T08:45:04;93668.28;;;17.21
30001;BMP280;16845;48.670;9.000;2023-10-19T08:47:31;93670.13;;;17.40
30001;BMP280;16845;48.670;9.000;2023-10-19T08:49:58;93662.13;;;17.44
30001;BMP280;16845;48.670;9.000;2023-10-19T08:52:25;93669.19;;;17.41
30001;BMP280;16845;48.670;9.000;2023-10-19T08:54:53;93670.25;;;17.87
30001;BMP280;16845;48.670;9.000;2023-10-19T08:57:20;93673.50;;;17.59
30001;BMP280;16845;48.670;9.000;2023-10-19T08:59:47;93668.28;;;17.91
30001;BMP280;16845;48.670;9.000;2023-10-19T09:02:15;93666.13;;;18.05
30001;BMP280;16845;48.670;9.000;2023-10-19T09:04:42;93669.38;;;18.07
30001;BMP280;16845;48.670;9.000;2023-10-19T09:07:08;93668.56;;;18.26
30001;BMP280;16845;48.670;9.000;2023-10-19T09:09:35;93667.22;;;18.22
30001;BMP280;16845;48.670;9.000;2023-10-19T09:12:04;93670.81;;;18.00
30001;BMP280;16845;48.670;9.000;2023-10-19T09:14:32;93657.06;;;18.22
30001;BMP280;16845;48.670;9.000;2023-10-19T09:16:59;93659.22;;;18.17
30001;BMP280;16845;48.670;9.000;2023-10-19T09:19:36;93654.13;;;18.26
30001;BMP280;16845;48.670;9.000;2023-10-19T09:22:04;93647.56;;;18.14
30001;BMP280;16845;48.670;9.000;2023-10-19T09:24:30;93644.81;;;18.55
30001;BMP280;16845;48.670;9.000;2023-10-19T09:26:58;93644.28;;;18.42
30001;BMP280;16845;48.670;9.000;2023-10-19T09:29:26;93643.59;;;18.50
30001;BMP280;16845;48.670;9.000;2023-10-19T09:31:53;93645.19;;;18.13
30001;BMP280;16845;48.670;9.000;2023-10-19T09:34:21;93640.41;;;18.48
30001;BMP280;16845;48.670;9.000;2023-10-19T09:36:48;93639.47;;;18.49
30001;BMP280;16845;48.670;9.000;2023-10-19T09:39:15;93632.75;;;18.38
30001;BMP280;16845;48.670;9.000;2023-10-19T09:41:42;93636.53;;;18.53
30001;BMP280;16845;48.670;9.000;2023-10-19T09:44:09;93634.38;;;18.39
30001;BMP280;16845;48.670;9.000;2023-10-19T09:46:38;93642.16;;;18.28
30001;BMP280;16845;48.670;9.000;2023-10-19T09:49:06;93644.13;;;18.44
30001;BMP280;16845;48.670;9.000;2023-10-19T09:51:33;93632.22;;;18.25
30001;BMP280;16845;48.670;9.000;2023-10-19T09:54:01;93631.84;;;18.30
30001;BMP280;16845;48.670;9.000;2023-10-19T09:56:36;93638.69;;;18.29
30001;BMP280;16845;48.670;9.000;2023-10-19T09:59:05;93646.69;;;18.34
30001;BMP280;16845;48.670;9.000;2023-10-19T10:02:04;93638.38;;;18.42
30001;BMP280;16845;48.670;9.000;2023-10-19T10:04:32;93643.88;;;18.37
30001;BMP280;16845;48.670;9.000;2023-10-19T10:07:00;93643.03;;;18.56
30001;BMP280;16845;48.670;9.000;2023-10-19T10:09:26;93638.88;;;18.74
30001;BMP280;16845;48.670;9.000;2023-10-19T10:11:53;93641.97;;;18.68
30001;BMP280;16845;48.670;9.000;2023-10-19T10:14:22;93633.81;;;18.74
30001;BMP280;16845;48.670;9.000;2023-10-19T10:16:59;93635.56;;;18.54
30001;BMP280;16845;48.670;9.000;2023-10-19T10:19:27;93634.75;;;18.73
30001;BMP280;16845;48.670;9.000;2023-10-19T10:22:03;93635.97;;;18.31
30001;BMP280;16845;48.670;9.000;2023-10-19T10:24:31;93637.84;;;18.48
30001;BMP280;16845;48.670;9.000;2023-10-19T10:26:58;93640.25;;;18.49
30001;BMP280;16845;48.670;9.000;2023-10-19T10:29:25;93636.50;;;18.44
30001;BMP280;16845;48.670;9.000;2023-10-19T10:31:51;93637.84;;;18.19
30001;BMP280;16845;48.670;9.000;2023-10-19T10:34:44;93641.31;;;18.56
30001;BMP280;16845;48.670;9.000;2023-10-19T10:37:11;93648.13;;;18.56
30001;BMP280;16845;48.670;9.000;2023-10-19T10:39:39;93636.22;;;18.75
30001;BMP280;16845;48.670;9.000;2023-10-19T10:42:06;93641.97;;;18.68
30001;BMP280;16845;48.670;9.000;2023-10-19T10:44:39;93653.09;;;18.57
30001;BMP280;16845;48.670;9.000;2023-10-19T10:47:07;93645.88;;;18.43
30001;BMP280;16845;48.670;9.000;2023-10-19T10:49:47;93647.75;;;18.32
30001;BMP280;16845;48.670;9.000;2023-10-19T10:52:23;93644.69;;;18.28
30001;BMP280;16845;48.670;9.000;2023-10-19T10:54:49;93647.09;;;18.49
30001;BMP280;16845;48.670;9.000;2023-10-19T10:57:16;93651.19;;;18.21
30001;BMP280;16845;48.670;9.000;2023-10-19T10:59:42;93648.00;;;18.19
30001;BMP280;16845;48.670;9.000;2023-10-19T11:02:16;93651.97;;;18.22
30001;BMP280;16845;48.670;9.000;2023-10-19T11:04:43;93658.91;;;17.91
30001;BMP280;16845;48.670;9.000;2023-10-19T11:07:17;93650.09;;;17.86
30001;BMP280;16845;48.670;9.000;2023-10-19T11:09:44;93654.59;;;17.82
30001;BMP280;16845;48.670;9.000;2023-10-19T11:12:11;93648.41;;;17.56
30001;BMP280;16845;48.670;9.000;2023-10-19T11:14:51;93643.59;;;17.44
30001;BMP280;16845;48.670;9.000;2023-10-19T11:17:17;93642.28;;;17.29
30001;BMP280;16845;48.670;9.000;2023-10-19T11:19:44;93643.19;;;17.18
30001;BMP280;16845;48.670;9.000;2023-10-19T11:22:12;93643.09;;;16.99
30001;BMP280;16845;48.670;9.000;2023-10-19T11:24:38;93646.59;;;17.08
30001;BMP280;16845;48.670;9.000;2023-10-19T11:27:05;93631.63;;;16.95
30001;BMP280;16845;48.670;9.000;2023-10-19T11:29:31;93648.47;;;17.06
30001;BMP280;16845;48.670;9.000;2023-10-19T11:31:58;93643.84;;;16.90
30001;BMP280;16845;48.670;9.000;2023-10-19T11:34:25;93635.31;;;16.91
30001;BMP280;16845;48.670;9.000;2023-10-19T11:36:52;93625.00;;;17.04
30001;BMP280;16845;48.670;9.000;2023-10-19T11:39:20;93619.28;;;17.11
30001;BMP280;16845;48.670;9.000;2023-10-19T11:41:47;93608.53;;;16.89
30001;BMP280;16845;48.670;9.000;2023-10-19T11:44:13;93608.84;;;17.05
30001;BMP280;16845;48.670;9.000;2023-10-19T11:46:40;93601.28;;;17.14
30001;BMP280;16845;48.670;9.000;2023-10-19T11:51:57;93590.34;;;17.14
30001;BMP280;16845;48.670;9.000;2023-10-19T11:54:24;93585.56;;;17.20
30001;BMP280;16845;48.670;9.000;2023-10-19T11:56:51;93579.16;;;17.26
30001;BMP280;16845;48.670;9.000;2023-10-19T11:59:17;93575.16;;;17.23
30001;BMP280;16845;48.670;9.000;2023-10-19T12:01:44;93569.84;;;16.87
30001;BMP280;16845;48.670;9.000;2023-10-19T12:04:11;93560.28;;;17.00
30001;BMP280;16845;48.670;9.000;2023-10-19T12:06:37;93545.28;;;16.87
30001;BMP280;16845;48.670;9.000;2023-10-19T12:09:04;93540.41;;;16.36
30001;BMP280;16845;48.670;9.000;2023-10-19T12:11:32;93522.56;;;16.67
30001;BMP280;16845;48.670;9.000;2023-10-19T12:13:58;93529.03;;;16.80
30001;BMP280;16845;48.670;9.000;2023-10-19T12:16:25;93540.03;;;17.09
30001;BMP280;16845;48.670;9.000;2023-10-19T12:18:51;93533.53;;;17.26
30001;BMP280;16845;48.670;9.000;2023-10-19T12:21:18;93541.53;;;17.12
30001;BMP280;16845;48.670;9.000;2023-10-19T12:23:46;93562.56;;;17.12
30001;BMP280;16845;48.670;9.000;2023-10-19T12:26:12;93548.97;;;17.04
30001;BMP280;16845;48.670;9.000;2023-10-19T12:28:40;93537.38;;;16.71
30001;BMP280;16845;48.670;9.000;2023-10-19T12:31:07;93550.84;;;17.11
30001;BMP280;16845;48.670;9.000;2023-10-19T12:33:34;93534.28;;;17.07
30001;BMP280;16845;48.670;9.000;2023-10-19T12:36:01;93547.34;;;16.93
30001;BMP280;16845;48.670;9.000;2023-10-19T12:38:28;93550.34;;;17.17
30001;BMP280;16845;48.670;9.000;2023-10-19T12:40:54;93555.69;;;17.24
30001;BMP280;16845;48.670;9.000;2023-10-19T12:43:21;93554.22;;;17.31
30001;BMP280;16845;48.670;9.000;2023-10-19T12:45:49;93562.94;;;17.38
30001;BMP280;16845;48.670;9.000;2023-10-19T12:48:16;93560.03;;;17.42
30001;BMP280;16845;48.670;9.000;2023-10-19T12:50:43;93556.94;;;17.48
30001;BMP280;16845;48.670;9.000;2023-10-19T12:53:09;93561.53;;;17.24
30001;BMP280;16845;48.670;9.000;2023-10-19T12:55:36;93561.53;;;17.15
30001;BMP280;16845;48.670;9.000;2023-10-19T12:58:03;93558.88;;;17.16
30001;BMP280;16845;48.670;9.000;2023-10-19T13:00:30;93551.78;;;17.10
30001;BMP280;16845;48.670;9.000;2023-10-19T13:03:00;93550.47;;;17.25
30001;BMP280;16845;48.670;9.000;2023-10-19T13:05:27;93546.53;;;17.02
30001;BMP280;16845;48.670;9.000;2023-10-19T13:07:54;93536.19;;;17.15
30001;BMP280;16845;48.670;9.000;2023-10-19T13:10:20;93530.44;;;17.03
30001;BMP280;16845;48.670;9.000;2023-10-19T13:12:47;93536.66;;;17.48
30001;BMP280;16845;48.670;9.000;2023-10-19T13:15:14;93533.63;;;17.54
30001;BMP280;16845;48.670;9.000;2023-10-19T13:17:40;93535.47;;;17.52
30001;BMP280;16845;48.670;9.000;2023-10-19T13:20:09;93529.34;;;17.64
30001;BMP280;16845;48.670;9.000;2023-10-19T13:22:36;93525.72;;;17.57
30001;BMP280;16845;48.670;9.000;2023-10-19T13:25:03;93524.53;;;17.42
30001;BMP280;16845;48.670;9.000;2023-10-19T13:27:29;93526.00;;;17.54
30001;BMP280;16845;48.670;9.000;2023-10-19T13:29:56;93519.97;;;17.36
30001;BMP280;16845;48.670;9.000;2023-10-19T13:32:22;93517.31;;;17.47
30001;BMP280;16845;48.670;9.000;2023-10-19T13:34:49;93512.25;;;17.47
30001;BMP280;16845;48.670;9.000;2023-10-19T13:37:17;93512.50;;;17.44
30001;BMP280;16845;48.670;9.000;2023-10-19T13:39:43;93522.56;;;17.16
30001;BMP280;16845;48.670;9.000;2023-10-19T13:42:10;93513.75;;;17.20
30001;BMP280;16845;48.670;9.000;2023-10-19T13:44:36;93513.38;;;17.24
30001;BMP280;16845;48.670;9.000;2023-10-19T13:47:03;93504.22;;;17.33
30001;BMP280;16845;48.670;9.000;2023-10-19T13:49:31;93501.78;;;17.31
30001;BMP280;16845;48.670;9.000;2023-10-19T13:51:59;93491.88;;;17.09
30001;BMP280;16845;48.670;9.000;2023-10-19T13:54:27;93488.84;;;17.34
30001;BMP280;16845;48.670;9.000;2023-10-19T13:56:53;93484.72;;;17.33
30001;BMP280;16845;48.670;9.000;2023-10-19T13:59:20;93480.75;;;17.40
30001;BMP280;16845;48.670;9.000;2023-10-19T14:01:46;93480.47;;;17.43
30001;BMP280;16845;48.670;9.000;2023-10-19T14:04:13;93477.56;;;17.38
30001;BMP280;16845;48.670;9.000;2023-10-19T14:06:40;93483.38;;;17.29
30001;BMP280;16845;48.670;9.000;2023-10-19T14:09:06;93478.16;;;17.31
30001;BMP280;16845;48.670;9.000;2023-10-19T14:11:34;93478.94;;;17.12
30001;BMP280;16845;48.670;9.000;2023-10-19T14:14:00;93475.88;;;17.18